createdAt,value
2023-11-23T00:01:14.566Z,-0.14
2023-11-23T00:03:42.874Z,-0.16
2023-11-23T00:06:11.375Z,-0.16
2023-11-23T00:08:42.579Z,-0.15
2023-11-23T00:11:11.214Z,-0.13
2023-11-23T00:13:39.463Z,-0.12
2023-11-23T00:16:08.557Z,-0.12
2023-11-23T00:18:36.725Z,-0.13
2023-11-23T00:21:05.143Z,-0.11
2023-11-23T00:23:33.591Z,-0.11
2023-11-23T00:26:04.646Z,-0.12
2023-11-23T00:28:32.804Z,-0.15
2023-11-23T00:31:01.018Z,-0.18
2023-11-23T00:33:29.853Z,-0.17
2023-11-23T00:35:58.278Z,-0.15
2023-11-23T00:38:26.675Z,-0.12
2023-11-23T00:40:55.055Z,-0.14
2023-11-23T00:43:23.192Z,-0.20
2023-11-23T00:45:52.420Z,-0.22
2023-11-23T00:48:21.913Z,-0.24
2023-11-23T00:50:50.529Z,-0.25
2023-11-23T00:53:18.583Z,-0.27
2023-11-23T00:55:46.692Z,-0.28
2023-11-23T00:58:14.781Z,-0.29
2023-11-23T01:00:44.450Z,-0.27
2023-11-23T01:03:12.763Z,-0.27
2023-11-23T01:05:41.551Z,-0.30
2023-11-23T01:08:10.193Z,-0.36
2023-11-23T01:10:38.569Z,-0.45
2023-11-23T01:13:07.423Z,-0.50
2023-11-23T01:15:35.674Z,-0.54
2023-11-23T01:18:03.940Z,-0.55
2023-11-23T01:20:32.383Z,-0.54
2023-11-23T01:23:00.414Z,-0.53
2023-11-23T01:25:29.518Z,-0.50
2023-11-23T01:27:57.603Z,-0.48
2023-11-23T01:30:25.660Z,-0.47
2023-11-23T01:32:54.427Z,-0.49
2023-11-23T01:35:22.976Z,-0.50
2023-11-23T01:37:51.257Z,-0.48
2023-11-23T01:40:19.676Z,-0.52
2023-11-23T01:42:49.029Z,-0.57
2023-11-23T01:45:18.939Z,-0.58
2023-11-23T01:47:48.306Z,-0.58
2023-11-23T01:50:18.091Z,-0.54
2023-11-23T01:52:47.252Z,-0.58
2023-11-23T01:55:16.254Z,-0.65
2023-11-23T01:57:46.333Z,-0.71
2023-11-23T02:00:15.058Z,-0.76
2023-11-23T02:02:44.093Z,-0.85
2023-11-23T02:05:13.070Z,-0.87
2023-11-23T02:07:41.100Z,-0.86
2023-11-23T02:10:10.135Z,-0.86
2023-11-23T02:12:39.677Z,-0.88
2023-11-23T02:15:10.509Z,-0.90
2023-11-23T02:17:38.623Z,-0.93
2023-11-23T02:20:10.466Z,-0.90
2023-11-23T02:22:39.442Z,-0.86
2023-11-23T02:25:08.290Z,-0.85
2023-11-23T02:27:36.744Z,-0.80
2023-11-23T02:30:08.934Z,-0.74
2023-11-23T02:32:37.170Z,-0.68
2023-11-23T02:35:05.657Z,-0.63
2023-11-23T02:37:34.531Z,-0.57
2023-11-23T02:40:02.867Z,-0.55
2023-11-23T02:42:31.141Z,-0.53
2023-11-23T02:45:00.502Z,-0.50
2023-11-23T02:47:29.451Z,-0.47
2023-11-23T02:49:58.392Z,-0.46
2023-11-23T02:52:26.891Z,-0.45
2023-11-23T02:54:55.066Z,-0.50
2023-11-23T02:57:23.838Z,-0.57
2023-11-23T02:59:52.109Z,-0.58
2023-11-23T03:02:21.596Z,-0.58
2023-11-23T03:04:50.084Z,-0.58
2023-11-23T03:07:19.272Z,-0.56
2023-11-23T03:09:47.979Z,-0.56
2023-11-23T03:12:16.438Z,-0.55
2023-11-23T03:14:45.263Z,-0.54
2023-11-23T03:17:13.872Z,-0.55
2023-11-23T03:19:42.172Z,-0.59
2023-11-23T03:22:10.199Z,-0.65
2023-11-23T03:24:38.537Z,-0.66
2023-11-23T03:27:06.840Z,-0.64
2023-11-23T03:29:34.970Z,-0.64
2023-11-23T03:32:03.573Z,-0.65
2023-11-23T03:34:32.614Z,-0.67
2023-11-23T03:37:00.965Z,-0.67
2023-11-23T03:39:29.098Z,-0.67
2023-11-23T03:41:57.380Z,-0.69
2023-11-23T03:44:26.128Z,-0.70
2023-11-23T03:46:55.145Z,-0.72
2023-11-23T03:49:23.418Z,-0.73
2023-11-23T03:51:51.726Z,-0.75
2023-11-23T03:54:19.912Z,-0.77
2023-11-23T03:56:49.297Z,-0.76
2023-11-23T03:59:17.538Z,-0.79
2023-11-23T04:01:47.864Z,-0.83
2023-11-23T04:04:16.558Z,-0.85
2023-11-23T04:06:45.460Z,-0.84
2023-11-23T04:09:14.002Z,-0.80
2023-11-23T04:11:42.394Z,-0.73
2023-11-23T04:14:10.917Z,-0.68
2023-11-23T04:16:39.523Z,-0.62
2023-11-23T04:19:07.651Z,-0.55
2023-11-23T04:21:35.696Z,-0.50
2023-11-23T04:24:04.282Z,-0.44
2023-11-23T04:26:32.956Z,-0.42
2023-11-23T04:29:01.236Z,-0.41
2023-11-23T04:31:29.453Z,-0.38
2023-11-23T04:33:57.567Z,-0.32
2023-11-23T04:36:29.514Z,-0.26
2023-11-23T04:38:57.794Z,-0.26
2023-11-23T04:41:27.155Z,-0.31
2023-11-23T04:43:55.422Z,-0.34
2023-11-23T04:46:24.429Z,-0.37
2023-11-23T04:48:52.487Z,-0.39
2023-11-23T04:51:21.066Z,-0.42
2023-11-23T04:53:49.309Z,-0.45
2023-11-23T04:56:18.593Z,-0.51
2023-11-23T04:58:46.845Z,-0.54
2023-11-23T05:01:14.917Z,-0.57
2023-11-23T05:03:43.596Z,-0.58
2023-11-23T05:06:13.392Z,-0.60
2023-11-23T05:08:41.658Z,-0.63
2023-11-23T05:11:10.089Z,-0.64
2023-11-23T05:13:38.111Z,-0.63
2023-11-23T05:16:07.691Z,-0.65
2023-11-23T05:18:35.819Z,-0.68
2023-11-23T05:21:05.684Z,-0.70
2023-11-23T05:23:34.079Z,-0.72
2023-11-23T05:26:04.503Z,-0.74
2023-11-23T05:28:32.637Z,-0.76
2023-11-23T05:31:01.082Z,-0.77
2023-11-23T05:33:29.651Z,-0.79
2023-11-23T05:35:58.060Z,-0.82
2023-11-23T05:38:26.383Z,-0.79
2023-11-23T05:40:55.460Z,-0.77
2023-11-23T05:43:25.547Z,-0.76
2023-11-23T05:45:53.841Z,-0.77
2023-11-23T05:48:22.627Z,-0.76
2023-11-23T05:50:50.953Z,-0.74
2023-11-23T05:53:19.024Z,-0.75
2023-11-23T05:55:47.322Z,-0.73
2023-11-23T05:58:15.395Z,-0.71
2023-11-23T06:00:43.662Z,-0.67
2023-11-23T06:03:12.016Z,-0.64
2023-11-23T06:05:40.363Z,-0.61
2023-11-23T06:08:08.817Z,-0.62
2023-11-23T06:10:37.199Z,-0.59
2023-11-23T06:13:05.515Z,-0.56
2023-11-23T06:15:33.838Z,-0.52
2023-11-23T06:18:10.998Z,-0.49
2023-11-23T06:20:42.488Z,-0.44
2023-11-23T06:23:11.650Z,-0.43
2023-11-23T06:25:40.509Z,-0.43
2023-11-23T06:28:14.966Z,-0.39
2023-11-23T06:30:46.542Z,-0.33
2023-11-23T06:33:15.187Z,-0.22
2023-11-23T06:35:43.603Z,-0.16
2023-11-23T06:38:12.873Z,-0.08
2023-11-23T06:40:40.947Z,-0.02
2023-11-23T06:43:09.089Z,0.01
2023-11-23T06:45:37.387Z,0.05
2023-11-23T06:48:06.283Z,0.07
2023-11-23T06:50:34.585Z,0.11
2023-11-23T06:53:03.344Z,0.17
2023-11-23T06:55:32.141Z,0.22
2023-11-23T06:58:01.132Z,0.21
2023-11-23T07:00:29.565Z,0.18
2023-11-23T07:02:59.389Z,0.16
2023-11-23T07:05:28.083Z,0.15
2023-11-23T07:07:56.835Z,0.18
2023-11-23T07:10:25.339Z,0.19
2023-11-23T07:12:53.942Z,0.20
2023-11-23T07:15:26.393Z,0.21
2023-11-23T07:17:55.125Z,0.24
2023-11-23T07:20:23.777Z,0.31
2023-11-23T07:22:51.919Z,0.34
2023-11-23T07:25:20.949Z,0.38
2023-11-23T07:27:50.303Z,0.43
2023-11-23T07:30:18.776Z,0.45
2023-11-23T07:32:47.333Z,0.44
2023-11-23T07:35:15.478Z,0.43
2023-11-23T07:37:43.917Z,0.42
2023-11-23T07:40:15.880Z,0.43
2023-11-23T07:42:45.090Z,0.50
2023-11-23T07:45:14.424Z,0.58
2023-11-23T07:47:44.170Z,0.68
2023-11-23T07:50:13.670Z,0.77
2023-11-23T07:52:41.859Z,0.86
2023-11-23T07:55:12.017Z,0.92
2023-11-23T07:57:40.484Z,0.96
2023-11-23T08:00:10.149Z,0.98
2023-11-23T08:02:38.657Z,1.02
2023-11-23T08:05:08.123Z,1.08
2023-11-23T08:07:36.674Z,1.12
2023-11-23T08:10:07.733Z,1.14
2023-11-23T08:12:36.028Z,1.17
2023-11-23T08:15:06.458Z,1.19
2023-11-23T08:17:34.637Z,1.20
2023-11-23T08:20:08.409Z,1.21
2023-11-23T08:22:37.499Z,1.23
2023-11-23T08:25:05.942Z,1.22
2023-11-23T08:27:35.791Z,1.24
2023-11-23T08:30:05.326Z,1.27
2023-11-23T08:32:33.509Z,1.30
2023-11-23T08:35:02.777Z,1.39
2023-11-23T08:37:30.897Z,1.49
2023-11-23T08:39:59.411Z,1.56
2023-11-23T08:42:27.858Z,1.65
2023-11-23T08:44:56.353Z,1.71
2023-11-23T08:47:25.100Z,1.77
2023-11-23T08:49:53.442Z,1.88
2023-11-23T08:52:23.075Z,1.97
2023-11-23T08:54:51.501Z,2.06
2023-11-23T08:57:19.751Z,2.17
2023-11-23T08:59:48.012Z,2.28
2023-11-23T09:02:20.499Z,2.37
2023-11-23T09:04:50.226Z,2.50
2023-11-23T09:07:20.915Z,2.65
2023-11-23T09:09:49.557Z,2.82
2023-11-23T09:14:49.558Z,3.28
2023-11-23T09:17:18.833Z,3.45
2023-11-23T09:19:48.598Z,3.66
2023-11-23T09:22:17.265Z,3.83
2023-11-23T09:24:45.632Z,4.01
2023-11-23T09:27:16.000Z,4.20
2023-11-23T09:29:45.270Z,4.42
2023-11-23T09:32:14.109Z,4.60
2023-11-23T09:34:42.308Z,4.85
2023-11-23T09:37:10.375Z,5.06
2023-11-23T09:39:38.562Z,5.40
2023-11-23T09:42:09.338Z,5.77
2023-11-23T09:44:37.874Z,5.86
2023-11-23T09:47:07.649Z,5.96
2023-11-23T09:49:38.571Z,6.25
2023-11-23T09:52:08.410Z,6.47
2023-11-23T09:54:37.266Z,6.75
2023-11-23T09:57:06.361Z,6.90
2023-11-23T09:59:34.703Z,7.24
2023-11-23T10:02:06.385Z,7.39
2023-11-23T10:04:35.250Z,7.28
2023-11-23T10:07:05.015Z,7.27
2023-11-23T10:09:35.031Z,7.27
2023-11-23T10:12:06.733Z,7.47
2023-11-23T10:14:35.149Z,7.77
2023-11-23T10:17:03.427Z,7.98
2023-11-23T10:19:32.602Z,8.36
2023-11-23T10:22:01.360Z,8.63
2023-11-23T10:24:30.243Z,8.73
2023-11-23T10:26:59.946Z,8.72
2023-11-23T10:29:31.209Z,8.61
2023-11-23T10:32:02.748Z,8.56
2023-11-23T10:34:33.506Z,8.58
2023-11-23T10:37:02.179Z,8.62
2023-11-23T10:39:32.373Z,8.66
2023-11-23T10:42:01.330Z,8.65
2023-11-23T10:44:31.187Z,8.68
2023-11-23T10:47:05.025Z,8.71
2023-11-23T10:49:38.749Z,8.61
2023-11-23T10:52:11.517Z,8.49
2023-11-23T10:54:41.237Z,8.41
2023-11-23T10:57:12.296Z,8.37
2023-11-23T10:59:42.595Z,8.28
2023-11-23T11:02:13.304Z,8.15
2023-11-23T11:04:41.927Z,8.01
2023-11-23T11:07:12.406Z,7.94
2023-11-23T11:09:40.763Z,7.91
2023-11-23T11:12:14.454Z,8.04
2023-11-23T11:14:50.581Z,8.20
2023-11-23T11:17:19.022Z,8.26
2023-11-23T11:19:51.420Z,8.30
2023-11-23T11:22:19.654Z,8.36
2023-11-23T11:24:58.950Z,8.54
2023-11-23T11:27:31.549Z,8.68
2023-11-23T11:30:01.559Z,8.94
2023-11-23T11:32:34.708Z,9.17
2023-11-23T11:35:06.552Z,9.22
2023-11-23T11:37:35.522Z,9.30
2023-11-23T11:40:07.006Z,9.35
2023-11-23T11:42:39.189Z,9.34
2023-11-23T11:45:14.172Z,9.32
2023-11-23T11:47:42.948Z,9.18
2023-11-23T11:50:14.188Z,9.06
2023-11-23T11:52:46.002Z,9.04
2023-11-23T11:55:14.265Z,9.09
2023-11-23T11:57:43.306Z,9.13
2023-11-23T12:00:12.953Z,9.13
2023-11-23T12:02:41.624Z,9.08
2023-11-23T12:05:10.629Z,9.00
2023-11-23T12:07:38.928Z,8.90
2023-11-23T12:10:08.654Z,8.73
2023-11-23T12:12:48.599Z,8.64
2023-11-23T12:15:18.580Z,8.52
2023-11-23T12:17:51.382Z,8.47
2023-11-23T12:20:19.709Z,8.43
2023-11-23T12:22:48.393Z,8.41
2023-11-23T12:25:19.745Z,8.35
2023-11-23T12:27:50.968Z,8.25
2023-11-23T12:30:19.234Z,8.18
2023-11-23T12:32:48.945Z,8.15
2023-11-23T12:35:17.527Z,8.08
2023-11-23T12:37:46.225Z,8.07
2023-11-23T12:40:14.863Z,8.03
2023-11-23T12:42:43.388Z,7.98
2023-11-23T12:45:13.577Z,7.85
2023-11-23T12:47:42.357Z,7.78
2023-11-23T12:50:11.726Z,7.79
2023-11-23T12:52:40.927Z,7.78
2023-11-23T12:55:10.487Z,7.71
2023-11-23T12:57:39.072Z,7.69
2023-11-23T13:00:14.662Z,7.65
2023-11-23T13:02:44.023Z,7.60
2023-11-23T13:05:13.980Z,7.52
2023-11-23T13:07:42.338Z,7.46
2023-11-23T13:10:10.869Z,7.41
2023-11-23T13:12:39.696Z,7.33
2023-11-23T13:15:09.941Z,7.26
2023-11-23T13:17:38.468Z,7.22
2023-11-23T13:20:11.935Z,7.16
2023-11-23T13:22:41.909Z,7.08
2023-11-23T13:25:13.221Z,7.00
2023-11-23T13:27:43.449Z,6.96
2023-11-23T13:30:12.760Z,6.88
2023-11-23T13:32:42.520Z,6.79
2023-11-23T13:35:12.119Z,6.69
2023-11-23T13:37:40.552Z,6.61
2023-11-23T13:40:10.378Z,6.48
2023-11-23T13:42:38.761Z,6.40
2023-11-23T13:45:09.697Z,6.31
2023-11-23T13:47:38.923Z,6.20
2023-11-23T13:50:14.745Z,6.14
2023-11-23T13:52:43.597Z,6.06
2023-11-23T13:55:11.956Z,6.02
2023-11-23T13:57:40.940Z,5.99
2023-11-23T14:00:21.704Z,5.92
2023-11-23T14:02:53.817Z,5.87
2023-11-23T14:05:22.087Z,5.83
2023-11-23T14:07:50.832Z,5.76
2023-11-23T14:10:20.818Z,5.70
2023-11-23T14:12:49.175Z,5.66
2023-11-23T14:15:20.865Z,5.62
2023-11-23T14:17:49.666Z,5.57
2023-11-23T14:20:18.251Z,5.54
2023-11-23T14:22:50.812Z,5.52
2023-11-23T14:25:21.946Z,5.52
2023-11-23T14:27:50.474Z,5.48
2023-11-23T14:30:20.024Z,5.45
2023-11-23T14:32:49.847Z,5.43
2023-11-23T14:35:18.196Z,5.42
2023-11-23T14:37:46.606Z,5.41
2023-11-23T14:40:20.451Z,5.39
2023-11-23T14:42:56.392Z,5.38
2023-11-23T14:45:29.233Z,5.36
2023-11-23T14:47:59.812Z,5.32
2023-11-23T14:50:30.659Z,5.26
2023-11-23T14:52:59.954Z,5.23
2023-11-23T14:55:28.641Z,5.21
2023-11-23T14:57:58.750Z,5.17
2023-11-23T15:00:27.293Z,5.14
2023-11-23T15:02:55.577Z,5.12
2023-11-23T15:05:24.087Z,5.10
2023-11-23T15:07:53.940Z,5.08
2023-11-23T15:10:22.346Z,5.05
2023-11-23T15:12:54.977Z,5.04
2023-11-23T15:15:27.665Z,5.01
2023-11-23T15:17:58.127Z,5.00
2023-11-23T15:20:27.893Z,4.98
2023-11-23T15:22:56.089Z,5.00
2023-11-23T15:25:24.954Z,5.03
2023-11-23T15:27:56.050Z,5.05
2023-11-23T15:30:24.295Z,5.08
2023-11-23T15:32:54.478Z,5.09
2023-11-23T15:35:22.863Z,5.08
2023-11-23T15:37:52.147Z,5.09
2023-11-23T15:40:21.071Z,5.09
2023-11-23T15:42:49.915Z,5.10
2023-11-23T15:45:18.877Z,5.13
2023-11-23T15:47:48.362Z,5.07
2023-11-23T15:50:17.039Z,5.01
2023-11-23T15:52:45.371Z,4.99
2023-11-23T15:55:13.646Z,4.94
2023-11-23T15:57:43.432Z,4.85
2023-11-23T16:00:13.113Z,4.81
2023-11-23T16:02:44.285Z,4.74
2023-11-23T16:05:14.084Z,4.70
2023-11-23T16:07:42.480Z,4.67
2023-11-23T16:10:10.930Z,4.63
2023-11-23T16:12:40.599Z,4.58
2023-11-23T16:15:09.472Z,4.52
2023-11-23T16:17:39.758Z,4.45
2023-11-23T16:20:16.288Z,4.36
2023-11-23T16:22:48.342Z,4.28
2023-11-23T16:25:17.334Z,4.18
2023-11-23T16:27:46.351Z,4.09
2023-11-23T16:30:15.684Z,4.00
2023-11-23T16:32:45.670Z,3.92
2023-11-23T16:35:14.547Z,3.83
2023-11-23T16:37:42.739Z,3.73
2023-11-23T16:40:12.063Z,3.67
2023-11-23T16:42:42.169Z,3.62
2023-11-23T16:45:11.857Z,3.57
2023-11-23T16:47:42.629Z,3.54
2023-11-23T16:50:12.167Z,3.55
2023-11-23T16:52:41.112Z,3.57
2023-11-23T16:55:10.379Z,3.58
2023-11-23T16:57:44.197Z,3.60
2023-11-23T17:00:15.588Z,3.62
2023-11-23T17:02:44.702Z,3.62
2023-11-23T17:05:15.449Z,3.63
2023-11-23T17:07:44.325Z,3.63
2023-11-23T17:10:13.466Z,3.63
2023-11-23T17:12:44.308Z,3.64
2023-11-23T17:15:13.469Z,3.63
2023-11-23T17:17:46.813Z,3.61
2023-11-23T17:20:20.186Z,3.58
2023-11-23T17:22:49.107Z,3.55
2023-11-23T17:25:17.472Z,3.50
2023-11-23T17:27:48.696Z,3.45
2023-11-23T17:30:17.189Z,3.41
2023-11-23T17:32:45.639Z,3.38
2023-11-23T17:35:13.917Z,3.37
2023-11-23T17:37:42.379Z,3.36
2023-11-23T17:40:11.289Z,3.35
2023-11-23T17:42:42.359Z,3.35
2023-11-23T17:45:11.497Z,3.36
2023-11-23T17:47:40.039Z,3.36
2023-11-23T17:50:12.746Z,3.33
2023-11-23T17:52:42.908Z,3.27
2023-11-23T17:55:11.509Z,3.25
2023-11-23T17:57:40.198Z,3.22
2023-11-23T18:00:13.966Z,3.20
2023-11-23T18:02:44.247Z,3.15
2023-11-23T18:05:13.466Z,3.09
2023-11-23T18:07:43.019Z,3.05
2023-11-23T18:10:15.762Z,2.98
2023-11-23T18:12:45.891Z,2.86
2023-11-23T18:15:15.330Z,2.73
2023-11-23T18:17:43.908Z,2.58
2023-11-23T18:20:14.412Z,2.46
2023-11-23T18:22:42.649Z,2.38
2023-11-23T18:25:11.867Z,2.31
2023-11-23T18:27:41.834Z,2.24
2023-11-23T18:30:13.558Z,2.16
2023-11-23T18:32:42.474Z,2.10
2023-11-23T18:35:17.535Z,2.01
2023-11-23T18:37:45.957Z,1.92
2023-11-23T18:40:14.623Z,1.86
2023-11-23T18:42:45.785Z,1.83
2023-11-23T18:45:14.347Z,1.78
2023-11-23T18:47:45.610Z,1.76
2023-11-23T18:50:15.336Z,1.74
2023-11-23T18:52:43.795Z,1.67
2023-11-23T18:55:16.120Z,1.62
2023-11-23T18:57:45.310Z,1.56
2023-11-23T19:00:14.342Z,1.52
2023-11-23T19:02:42.896Z,1.50
2023-11-23T19:05:19.539Z,1.47
2023-11-23T19:07:48.975Z,1.44
2023-11-23T19:10:17.408Z,1.44
2023-11-23T19:12:50.923Z,1.42
2023-11-23T19:15:20.629Z,1.44
2023-11-23T19:17:51.071Z,1.42
2023-11-23T19:20:20.148Z,1.41
2023-11-23T19:22:48.775Z,1.41
2023-11-23T19:25:17.700Z,1.39
2023-11-23T19:27:46.556Z,1.38
2023-11-23T19:30:15.555Z,1.35
2023-11-23T19:32:46.279Z,1.33
2023-11-23T19:35:17.708Z,1.30
2023-11-23T19:37:52.843Z,1.28
2023-11-23T19:40:24.442Z,1.30
2023-11-23T19:42:54.982Z,1.30
2023-11-23T19:45:25.162Z,1.24
2023-11-23T19:47:55.081Z,1.23
2023-11-23T19:50:24.078Z,1.21
2023-11-23T19:52:55.181Z,1.20
2023-11-23T19:55:24.261Z,1.18
2023-11-23T19:57:52.683Z,1.16
2023-11-23T20:00:21.362Z,1.17
2023-11-23T20:02:49.833Z,1.18
2023-11-23T20:05:18.535Z,1.19
2023-11-23T20:07:46.834Z,1.18
2023-11-23T20:10:15.211Z,1.19
2023-11-23T20:12:43.344Z,1.18
2023-11-23T20:15:11.723Z,1.16
2023-11-23T20:17:40.141Z,1.15
2023-11-23T20:20:11.414Z,1.15
2023-11-23T20:22:39.538Z,1.19
2023-11-23T20:25:09.293Z,1.19
2023-11-23T20:27:37.748Z,1.17
2023-11-23T20:30:06.830Z,1.18
2023-11-23T20:32:35.122Z,1.18
2023-11-23T20:35:06.456Z,1.19
2023-11-23T20:37:35.993Z,1.16
2023-11-23T20:40:05.788Z,1.11
2023-11-23T20:42:34.001Z,1.10
2023-11-23T20:45:02.275Z,1.17
2023-11-23T20:47:30.677Z,1.24
2023-11-23T20:50:00.046Z,1.27
2023-11-23T20:52:28.210Z,1.28
2023-11-23T20:54:56.593Z,1.28
2023-11-23T20:57:25.407Z,1.28
2023-11-23T20:59:54.094Z,1.29
2023-11-23T21:02:23.148Z,1.36
2023-11-23T21:04:52.929Z,1.39
2023-11-23T21:07:21.695Z,1.40
2023-11-23T21:09:50.465Z,1.42
2023-11-23T21:12:27.074Z,1.44
2023-11-23T21:14:56.179Z,1.46
2023-11-23T21:17:24.526Z,1.45
2023-11-23T21:19:53.786Z,1.45
2023-11-23T21:22:22.591Z,1.43
2023-11-23T21:24:50.980Z,1.43
2023-11-23T21:27:19.473Z,1.45
2023-11-23T21:29:48.765Z,1.48
2023-11-23T21:32:17.201Z,1.46
2023-11-23T21:34:47.542Z,1.39
2023-11-23T21:37:15.769Z,1.43
2023-11-23T21:39:48.699Z,1.52
2023-11-23T21:42:18.971Z,1.55
2023-11-23T21:44:47.304Z,1.57
2023-11-23T21:47:16.281Z,1.59
2023-11-23T21:49:45.432Z,1.60
2023-11-23T21:52:13.657Z,1.64
2023-11-23T21:54:50.205Z,1.69
2023-11-23T21:57:22.240Z,1.76
2023-11-23T21:59:50.533Z,1.79
2023-11-23T22:02:18.989Z,1.81
2023-11-23T22:04:47.419Z,1.81
2023-11-23T22:07:15.851Z,1.81
2023-11-23T22:09:44.065Z,1.82
2023-11-23T22:12:12.372Z,1.86
2023-11-23T22:14:40.433Z,1.90
2023-11-23T22:17:10.160Z,1.97
2023-11-23T22:19:39.105Z,2.00
2023-11-23T22:22:08.479Z,2.06
2023-11-23T22:24:38.840Z,2.26
2023-11-23T22:27:07.609Z,2.46
2023-11-23T22:29:35.846Z,2.62
2023-11-23T22:32:06.573Z,2.79
2023-11-23T22:34:35.601Z,2.91
2023-11-23T22:37:05.082Z,2.96
2023-11-23T22:39:33.952Z,3.01
2023-11-23T22:42:02.923Z,2.99
2023-11-23T22:44:31.814Z,2.95
2023-11-23T22:47:01.007Z,2.88
2023-11-23T22:49:29.354Z,2.82
2023-11-23T22:51:58.182Z,2.75
2023-11-23T22:54:27.021Z,2.67
2023-11-23T22:56:55.400Z,2.61
2023-11-23T22:59:23.725Z,2.56
2023-11-23T23:01:51.868Z,2.51
2023-11-23T23:04:21.939Z,2.45
2023-11-23T23:06:50.562Z,2.41
2023-11-23T23:09:21.210Z,2.36
2023-11-23T23:11:51.829Z,2.31
2023-11-23T23:14:20.026Z,2.28
2023-11-23T23:16:48.272Z,2.28
2023-11-23T23:19:16.530Z,2.27
2023-11-23T23:21:45.877Z,2.28
2023-11-23T23:24:14.469Z,2.28
2023-11-23T23:26:42.970Z,2.30
2023-11-23T23:29:11.068Z,2.32
2023-11-23T23:31:40.157Z,2.35
2023-11-23T23:34:09.299Z,2.37
2023-11-23T23:36:37.931Z,2.39
2023-11-23T23:39:06.268Z,2.42
2023-11-23T23:41:34.541Z,2.43
2023-11-23T23:44:03.009Z,2.44
2023-11-23T23:46:31.493Z,2.45
2023-11-23T23:49:01.701Z,2.46
2023-11-23T23:51:33.217Z,2.47
2023-11-23T23:54:01.626Z,2.51
2023-11-23T23:56:30.001Z,2.53
2023-11-23T23:58:58.220Z,2.57
